Weather at Urbain Bio Kawasaki Helipad

Public forecast

Using degrees Celsius for public forecast. Weather courtesy of forecast.io.

Closest aviation weather report (METAR) to Urbain Bio Kawasaki Helipad

Closest report is Tokyo Haneda International Airport, 4.4 nm (8.2 km) ENE.

2024/07/24 05:00 (retrieved 10 minutes ago)

RJTT 240500Z 19011KT 9999 FEW030CB BKN/// 32/25 Q1004 NOSIG

Closest aviation forecast (TAF) to Urbain Bio Kawasaki Helipad

Forecast is more than 12 hours old.

Closest forecast is Wonsan Kalma International Airport, 621.6 nm (1,151.2 km) WNW.

2024/07/23 06:00 (retrieved 23 hours ago)

TAF ZKWS 230400Z 2306/2406 23004MPS 9999 BKN030 TX33/2306Z TN24/2321Z TEMPO 2400/2406 2000 -RA OVC013